createdAt,value
2023-03-13T00:01:40.189Z,1.55
2023-03-13T00:04:07.679Z,1.20
2023-03-13T00:06:39.114Z,1.63
2023-03-13T00:09:07.719Z,1.35
2023-03-13T00:11:35.001Z,1.60
2023-03-13T00:14:03.035Z,1.55
2023-03-13T00:16:30.746Z,1.35
2023-03-13T00:18:58.924Z,1.58
2023-03-13T00:21:27.320Z,1.15
2023-03-13T00:23:54.520Z,1.67
2023-03-13T00:26:23.224Z,1.92
2023-03-13T00:28:51.008Z,1.52
2023-03-13T00:31:19.758Z,1.30
2023-03-13T00:33:48.204Z,1.33
2023-03-13T00:36:17.156Z,1.10
2023-03-13T00:38:44.702Z,1.63
2023-03-13T00:41:13.784Z,1.15
2023-03-13T00:43:41.795Z,0.88
2023-03-13T00:46:09.464Z,1.52
2023-03-13T00:48:36.833Z,1.30
2023-03-13T00:51:04.778Z,1.20
2023-03-13T00:53:32.424Z,1.10
2023-03-13T00:56:04.635Z,1.00
2023-03-13T00:58:32.703Z,1.40
2023-03-13T01:01:07.548Z,1.10
2023-03-13T01:03:34.757Z,1.10
2023-03-13T01:06:03.021Z,1.17
2023-03-13T01:08:30.801Z,1.00
2023-03-13T01:11:02.316Z,1.10
2023-03-13T01:13:30.459Z,0.80
2023-03-13T01:15:57.748Z,1.00
2023-03-13T01:18:24.956Z,0.90
2023-03-13T01:20:52.165Z,1.00
2023-03-13T01:23:19.782Z,0.80
2023-03-13T01:25:47.015Z,0.80
2023-03-13T01:28:14.431Z,0.73
2023-03-13T01:30:41.593Z,0.93
2023-03-13T01:33:08.785Z,0.98
2023-03-13T01:35:36.200Z,0.90
2023-03-13T01:38:03.392Z,0.80
2023-03-13T01:40:30.507Z,0.95
2023-03-13T01:42:59.268Z,0.90
2023-03-13T01:45:45.143Z,1.42
2023-03-13T01:48:12.328Z,0.90
2023-03-13T01:50:39.485Z,0.98
2023-03-13T01:53:07.101Z,0.98
2023-03-13T01:55:34.449Z,0.80
2023-03-13T01:58:01.723Z,0.70
2023-03-13T02:00:32.105Z,0.88
2023-03-13T02:03:01.626Z,0.82
2023-03-13T02:05:29.680Z,0.60
2023-03-13T02:07:59.888Z,0.75
2023-03-13T02:10:27.175Z,0.77
2023-03-13T02:12:54.484Z,0.60
2023-03-13T02:15:23.183Z,0.68
2023-03-13T02:17:51.095Z,0.70
2023-03-13T02:20:21.819Z,0.80
2023-03-13T02:23:08.702Z,0.70
2023-03-13T02:25:49.694Z,0.70
2023-03-13T02:28:21.280Z,0.75
2023-03-13T02:30:49.403Z,0.68
2023-03-13T02:33:16.942Z,0.63
2023-03-13T02:35:45.024Z,1.13
2023-03-13T02:38:13.783Z,0.75
2023-03-13T02:40:42.778Z,0.70
2023-03-13T02:43:12.427Z,0.55
2023-03-13T02:45:39.560Z,0.80
2023-03-13T02:48:06.815Z,0.65
2023-03-13T02:50:34.791Z,0.73
2023-03-13T02:53:04.491Z,0.50
2023-03-13T02:55:37.559Z,0.47
2023-03-13T02:58:04.723Z,0.70
2023-03-13T03:00:31.904Z,1.05
2023-03-13T03:02:59.046Z,1.05
2023-03-13T03:05:26.209Z,0.52
2023-03-13T03:07:53.327Z,0.68
2023-03-13T03:10:21.481Z,0.60
2023-03-13T03:12:48.609Z,0.68
2023-03-13T03:15:15.887Z,0.63
2023-03-13T03:17:43.013Z,0.63
2023-03-13T03:20:12.978Z,0.82
2023-03-13T03:22:43.482Z,0.60
2023-03-13T03:25:10.753Z,0.52
2023-03-13T03:27:38.059Z,0.60
2023-03-13T03:30:05.844Z,0.65
2023-03-13T03:32:33.083Z,0.60
2023-03-13T03:35:00.245Z,0.70
2023-03-13T03:37:27.417Z,0.70
2023-03-13T03:39:54.684Z,0.60
2023-03-13T03:42:21.967Z,0.50
2023-03-13T03:44:49.147Z,0.45
2023-03-13T03:47:16.539Z,0.60
2023-03-13T03:49:43.738Z,0.70
2023-03-13T03:52:10.853Z,0.68
2023-03-13T03:54:37.998Z,0.50
2023-03-13T03:57:05.250Z,0.65
2023-03-13T03:59:32.406Z,0.70
2023-03-13T04:01:59.585Z,0.70
2023-03-13T04:04:27.028Z,0.52
2023-03-13T04:06:54.261Z,0.60
2023-03-13T04:09:21.575Z,0.40
2023-03-13T04:11:48.752Z,0.52
2023-03-13T04:14:15.907Z,0.70
2023-03-13T04:16:43.250Z,0.40
2023-03-13T04:19:10.459Z,0.77
2023-03-13T04:21:38.078Z,0.88
2023-03-13T04:24:05.285Z,0.70
2023-03-13T04:26:32.496Z,0.80
2023-03-13T04:28:59.628Z,0.60
2023-03-13T04:31:26.786Z,0.68
2023-03-13T04:33:53.965Z,0.75
2023-03-13T04:36:21.257Z,0.73
2023-03-13T04:38:48.436Z,0.80
2023-03-13T04:41:15.580Z,0.50
2023-03-13T04:43:42.702Z,0.85
2023-03-13T04:46:09.956Z,0.73
2023-03-13T04:48:37.107Z,0.63
2023-03-13T04:51:04.350Z,0.82
2023-03-13T04:53:31.481Z,0.73
2023-03-13T04:55:58.656Z,0.75
2023-03-13T04:58:25.758Z,0.60
2023-03-13T05:00:53.887Z,0.70
2023-03-13T05:03:21.341Z,0.80
2023-03-13T05:05:48.539Z,0.57
2023-03-13T05:08:15.742Z,0.70
2023-03-13T05:10:43.433Z,0.55
2023-03-13T05:13:10.651Z,0.70
2023-03-13T05:15:37.881Z,0.80
2023-03-13T05:18:05.137Z,0.70
2023-03-13T05:20:32.394Z,0.55
2023-03-13T05:22:59.543Z,0.70
2023-03-13T05:25:26.709Z,0.60
2023-03-13T05:27:53.880Z,1.00
2023-03-13T05:30:21.109Z,1.20
2023-03-13T05:32:48.380Z,0.90
2023-03-13T05:35:15.578Z,0.68
2023-03-13T05:37:43.374Z,0.70
2023-03-13T05:40:10.912Z,0.93
2023-03-13T05:42:38.164Z,0.80
2023-03-13T05:45:05.531Z,0.90
2023-03-13T05:47:32.905Z,0.80
2023-03-13T05:50:00.099Z,0.82
2023-03-13T05:52:27.341Z,0.90
2023-03-13T05:54:54.484Z,0.90
2023-03-13T05:57:21.781Z,1.20
2023-03-13T05:59:48.910Z,1.20
2023-03-13T06:02:16.134Z,1.48
2023-03-13T06:04:43.474Z,1.30
2023-03-13T06:07:10.817Z,1.10
2023-03-13T06:09:37.945Z,0.80
2023-03-13T06:12:05.263Z,1.10
2023-03-13T06:14:32.583Z,0.57
2023-03-13T06:16:59.743Z,1.00
2023-03-13T06:19:26.912Z,0.90
2023-03-13T06:21:54.069Z,0.70
2023-03-13T06:24:21.214Z,0.80
2023-03-13T06:26:51.609Z,0.73
2023-03-13T06:29:18.759Z,0.90
2023-03-13T06:31:46.002Z,1.40
2023-03-13T06:34:13.612Z,1.42
2023-03-13T06:36:40.892Z,0.90
2023-03-13T06:39:08.397Z,1.13
2023-03-13T06:41:35.555Z,0.70
2023-03-13T06:44:02.902Z,1.48
2023-03-13T06:46:30.189Z,0.80
2023-03-13T06:48:58.207Z,1.48
2023-03-13T06:51:26.614Z,1.08
2023-03-13T06:53:53.843Z,1.13
2023-03-13T06:56:21.774Z,0.85
2023-03-13T06:58:49.524Z,0.90
2023-03-13T07:01:17.232Z,1.20
2023-03-13T07:03:44.814Z,1.00
2023-03-13T07:06:12.789Z,0.90
2023-03-13T07:08:40.013Z,1.10
2023-03-13T07:11:08.573Z,0.70
2023-03-13T07:13:36.238Z,0.88
2023-03-13T07:16:04.680Z,0.80
2023-03-13T07:18:32.203Z,1.38
2023-03-13T07:21:00.324Z,1.10
2023-03-13T07:23:28.498Z,1.38
2023-03-13T07:26:00.057Z,0.93
2023-03-13T07:28:28.316Z,0.85
2023-03-13T07:30:55.769Z,1.05
2023-03-13T07:33:22.919Z,0.88
2023-03-13T07:35:50.956Z,1.10
2023-03-13T07:38:18.656Z,1.00
2023-03-13T07:40:49.652Z,1.15
2023-03-13T07:43:17.105Z,1.00
2023-03-13T07:45:51.621Z,1.10
2023-03-13T07:48:19.380Z,1.30
2023-03-13T07:50:46.901Z,0.90
2023-03-13T07:53:16.180Z,1.00
2023-03-13T07:55:43.403Z,1.10
2023-03-13T07:58:10.528Z,0.90
2023-03-13T08:00:38.307Z,1.08
2023-03-13T08:03:06.826Z,1.17
2023-03-13T08:05:34.542Z,0.85
2023-03-13T08:08:01.679Z,1.27
2023-03-13T08:10:28.790Z,0.90
2023-03-13T08:12:55.941Z,1.20
2023-03-13T08:15:26.163Z,1.05
2023-03-13T08:17:53.555Z,1.05
2023-03-13T08:20:20.685Z,1.00
2023-03-13T08:22:47.888Z,1.20
2023-03-13T08:25:15.373Z,0.90
2023-03-13T08:27:42.521Z,1.10
2023-03-13T08:30:10.016Z,0.90
2023-03-13T08:32:37.804Z,0.90
2023-03-13T08:35:05.358Z,0.98
2023-03-13T08:37:32.597Z,1.15
2023-03-13T08:39:59.826Z,1.20
2023-03-13T08:42:26.994Z,0.80
2023-03-13T08:44:54.144Z,0.90
2023-03-13T08:47:21.317Z,1.17
2023-03-13T08:49:48.470Z,1.15
2023-03-13T08:52:15.592Z,0.98
2023-03-13T08:54:43.438Z,1.00
2023-03-13T08:57:10.620Z,1.00
2023-03-13T08:59:37.762Z,0.80
2023-03-13T09:02:05.580Z,0.85
2023-03-13T09:04:32.732Z,0.95
2023-03-13T09:06:59.917Z,1.10
2023-03-13T09:09:27.108Z,0.90
2023-03-13T09:11:54.288Z,0.93
2023-03-13T09:14:21.485Z,0.65
2023-03-13T09:16:49.764Z,1.10
2023-03-13T09:19:17.194Z,0.88
2023-03-13T09:21:46.461Z,0.90
2023-03-13T09:24:13.628Z,0.85
2023-03-13T09:26:46.535Z,0.70
2023-03-13T09:29:18.930Z,0.50
2023-03-13T09:31:46.120Z,0.88
2023-03-13T09:34:13.292Z,0.73
2023-03-13T09:36:41.100Z,0.68
2023-03-13T09:39:08.209Z,0.60
2023-03-13T09:41:35.417Z,0.93
2023-03-13T09:44:21.409Z,0.90
2023-03-13T09:46:58.861Z,0.50
2023-03-13T09:49:25.969Z,0.70
2023-03-13T09:51:57.184Z,0.68
2023-03-13T09:54:41.948Z,0.60
2023-03-13T09:57:18.869Z,0.80
2023-03-13T09:59:52.761Z,0.73
2023-03-13T10:02:29.224Z,0.77
2023-03-13T10:05:05.926Z,0.80
2023-03-13T10:07:33.072Z,0.80
2023-03-13T10:10:03.522Z,0.80
2023-03-13T10:12:36.288Z,0.75
2023-03-13T10:15:22.441Z,0.68
2023-03-13T10:17:49.778Z,0.65
2023-03-13T10:20:16.890Z,0.60
2023-03-13T10:22:46.627Z,0.70
2023-03-13T10:25:21.947Z,1.00
2023-03-13T10:27:50.959Z,0.70
2023-03-13T10:30:24.894Z,0.60
2023-03-13T10:32:54.325Z,0.82
2023-03-13T10:35:22.997Z,0.70
2023-03-13T10:37:50.416Z,1.05
2023-03-13T10:40:25.156Z,0.45
2023-03-13T10:45:20.704Z,0.60
2023-03-13T10:47:55.611Z,1.00
2023-03-13T10:50:24.759Z,0.90
2023-03-13T10:52:52.309Z,0.73
2023-03-13T10:55:20.877Z,0.52
2023-03-13T10:58:04.907Z,0.68
2023-03-13T11:00:35.257Z,0.80
2023-03-13T11:03:17.898Z,0.80
2023-03-13T11:05:45.620Z,0.60
2023-03-13T11:08:26.497Z,0.60
2023-03-13T11:10:57.322Z,0.40
2023-03-13T11:13:42.789Z,0.50
2023-03-13T11:16:20.016Z,0.40
2023-03-13T11:19:05.850Z,0.40
2023-03-13T11:21:49.206Z,0.50
2023-03-13T11:24:21.038Z,0.40
2023-03-13T11:27:08.438Z,0.30
2023-03-13T11:29:48.009Z,0.20
2023-03-13T11:32:21.321Z,0.70
2023-03-13T11:34:52.116Z,0.45
2023-03-13T11:37:20.440Z,0.40
2023-03-13T11:39:48.637Z,0.40
2023-03-13T11:42:34.532Z,0.50
2023-03-13T11:45:07.795Z,0.40
2023-03-13T11:47:43.886Z,0.60
2023-03-13T11:50:20.256Z,0.40
2023-03-13T11:52:57.370Z,0.32
2023-03-13T11:55:28.996Z,0.40
2023-03-13T11:57:59.195Z,0.57
2023-03-13T12:00:35.691Z,0.43
2023-03-13T12:03:05.881Z,0.50
2023-03-13T12:05:48.680Z,0.60
2023-03-13T12:08:23.042Z,0.40
2023-03-13T12:11:01.878Z,0.57
2023-03-13T12:13:55.145Z,0.40
2023-03-13T12:16:25.602Z,0.70
2023-03-13T12:18:53.906Z,0.35
2023-03-13T12:21:29.658Z,0.70
2023-03-13T12:24:12.760Z,0.40
2023-03-13T12:26:43.051Z,0.38
2023-03-13T12:29:13.270Z,0.57
2023-03-13T12:31:43.005Z,0.50
2023-03-13T12:34:31.649Z,0.55
2023-03-13T12:37:11.110Z,0.40
2023-03-13T12:39:50.125Z,0.70
2023-03-13T12:42:17.316Z,0.80
2023-03-13T12:44:44.774Z,1.00
2023-03-13T12:47:29.908Z,0.80
2023-03-13T12:52:24.200Z,0.90
2023-03-13T12:54:54.821Z,1.00
2023-03-13T12:57:54.588Z,0.70
2023-03-13T13:00:23.029Z,0.95
2023-03-13T13:03:03.557Z,1.25
2023-03-13T13:05:30.725Z,0.90
2023-03-13T13:07:58.220Z,1.20
2023-03-13T13:10:26.798Z,0.80
2023-03-13T13:13:12.790Z,2.03
2023-03-13T13:15:45.266Z,1.20
2023-03-13T13:18:18.435Z,1.30
2023-03-13T13:20:48.098Z,0.88
2023-03-13T13:23:27.607Z,0.90
2023-03-13T13:25:56.303Z,0.52
2023-03-13T13:28:27.023Z,1.02
2023-03-13T13:30:56.250Z,1.08
2023-03-13T13:33:29.163Z,1.17
2023-03-13T13:36:08.491Z,1.13
2023-03-13T13:38:42.848Z,1.30
2023-03-13T13:41:09.984Z,1.20
2023-03-13T13:43:38.251Z,0.82
2023-03-13T13:46:10.606Z,0.90
2023-03-13T13:48:44.486Z,0.82
2023-03-13T13:51:11.699Z,0.98
2023-03-13T13:54:09.525Z,0.95
2023-03-13T13:56:41.373Z,0.93
2023-03-13T13:59:26.982Z,0.77
2023-03-13T14:02:26.517Z,0.95
2023-03-13T14:04:54.501Z,0.93
2023-03-13T14:07:26.258Z,0.80
2023-03-13T14:09:58.816Z,1.00
2023-03-13T14:12:26.095Z,1.08
2023-03-13T14:15:11.848Z,0.80
2023-03-13T14:17:43.715Z,0.60
2023-03-13T14:20:31.123Z,0.82
2023-03-13T14:23:01.611Z,0.70
2023-03-13T14:25:30.125Z,0.80
2023-03-13T14:27:57.546Z,0.85
2023-03-13T14:30:24.916Z,0.70
2023-03-13T14:32:52.500Z,1.30
2023-03-13T14:35:22.330Z,0.80
2023-03-13T14:37:50.902Z,0.60
2023-03-13T14:40:28.548Z,0.70
2023-03-13T14:43:05.178Z,0.88
2023-03-13T14:45:34.011Z,0.70
2023-03-13T14:48:05.938Z,0.70
2023-03-13T14:50:33.123Z,0.82
2023-03-13T14:53:05.396Z,0.65
2023-03-13T14:55:34.706Z,0.60
2023-03-13T14:58:29.097Z,0.65
2023-03-13T15:00:56.496Z,0.50
2023-03-13T15:03:27.820Z,1.10
2023-03-13T15:06:24.164Z,0.73
2023-03-13T15:09:11.257Z,1.70
2023-03-13T15:11:41.975Z,0.80
2023-03-13T15:14:27.915Z,0.40
2023-03-13T15:16:55.787Z,0.43
2023-03-13T15:19:22.895Z,0.45
2023-03-13T15:21:52.399Z,0.70
2023-03-13T15:24:19.531Z,0.60
2023-03-13T15:26:48.905Z,0.50
2023-03-13T15:29:18.268Z,0.65
2023-03-13T15:31:45.630Z,0.50
2023-03-13T15:34:13.622Z,0.60
2023-03-13T15:36:42.754Z,0.57
2023-03-13T15:39:16.901Z,1.15
2023-03-13T15:41:44.053Z,0.80
2023-03-13T15:44:11.318Z,1.10
2023-03-13T15:46:38.534Z,0.90
2023-03-13T15:49:11.174Z,0.47
2023-03-13T15:51:38.465Z,0.88
2023-03-13T15:54:05.750Z,0.70
2023-03-13T15:56:36.577Z,0.70
2023-03-13T15:59:10.399Z,0.73
2023-03-13T16:01:37.879Z,0.70
2023-03-13T16:04:05.724Z,0.47
2023-03-13T16:06:32.994Z,0.80
2023-03-13T16:09:01.037Z,0.63
2023-03-13T16:11:29.497Z,1.00
2023-03-13T16:13:58.627Z,1.30
2023-03-13T16:16:30.100Z,0.80
2023-03-13T16:18:58.205Z,0.75
2023-03-13T16:21:29.520Z,1.38
2023-03-13T16:23:56.820Z,0.60
2023-03-13T16:26:29.188Z,0.80
2023-03-13T16:28:56.458Z,0.50
2023-03-13T16:31:25.679Z,0.80
2023-03-13T16:33:54.301Z,1.10
2023-03-13T16:36:26.013Z,0.90
2023-03-13T16:41:36.265Z,1.00
2023-03-13T16:44:03.831Z,0.90
2023-03-13T16:46:36.385Z,1.20
2023-03-13T16:49:04.117Z,1.10
2023-03-13T16:51:32.006Z,1.33
2023-03-13T16:54:03.549Z,1.02
2023-03-13T16:56:38.570Z,1.05
2023-03-13T16:59:08.721Z,1.13
2023-03-13T17:01:41.387Z,1.20
2023-03-13T17:04:08.932Z,1.00
2023-03-13T17:06:37.741Z,1.10
2023-03-13T17:09:06.667Z,0.82
2023-03-13T17:11:34.004Z,1.05
2023-03-13T17:14:03.771Z,1.10
2023-03-13T17:16:34.987Z,0.90
2023-03-13T17:19:03.316Z,1.40
2023-03-13T17:21:35.571Z,1.13
2023-03-13T17:24:03.482Z,1.30
2023-03-13T17:26:33.139Z,1.08
2023-03-13T17:29:00.572Z,1.00
2023-03-13T17:31:29.395Z,1.45
2023-03-13T17:33:57.004Z,1.13
2023-03-13T17:36:27.605Z,1.08
2023-03-13T17:38:57.352Z,0.98
2023-03-13T17:41:31.235Z,0.90
2023-03-13T17:43:59.922Z,1.00
2023-03-13T17:46:46.927Z,1.08
2023-03-13T17:49:17.947Z,1.23
2023-03-13T17:51:46.453Z,1.00
2023-03-13T17:54:15.932Z,1.10
2023-03-13T17:56:43.978Z,1.33
2023-03-13T17:59:13.438Z,1.17
2023-03-13T18:01:40.658Z,1.40
2023-03-13T18:04:07.931Z,1.38
2023-03-13T18:06:39.905Z,1.25
2023-03-13T18:09:08.781Z,1.50
2023-03-13T18:11:37.554Z,1.30
2023-03-13T18:14:05.410Z,1.13
2023-03-13T18:16:48.146Z,1.35
2023-03-13T18:19:17.622Z,1.33
2023-03-13T18:21:45.602Z,1.25
2023-03-13T18:24:13.395Z,1.50
2023-03-13T18:26:41.398Z,1.15
2023-03-13T18:29:19.294Z,1.42
2023-03-13T18:31:48.170Z,1.65
2023-03-13T18:34:15.437Z,1.50
2023-03-13T18:37:12.324Z,1.70
2023-03-13T18:39:40.241Z,1.77
2023-03-13T18:42:08.141Z,2.65
2023-03-13T18:44:35.694Z,2.45
2023-03-13T18:47:03.196Z,3.15
2023-03-13T18:49:32.564Z,2.70
2023-03-13T18:51:59.815Z,2.30
2023-03-13T18:54:27.035Z,2.45
2023-03-13T18:56:54.214Z,2.30
2023-03-13T18:59:22.031Z,2.20
2023-03-13T19:01:49.612Z,1.98
2023-03-13T19:04:17.050Z,1.70
2023-03-13T19:06:45.861Z,1.60
2023-03-13T19:09:41.716Z,1.45
2023-03-13T19:12:04.760Z,1.85
2023-03-13T19:14:31.987Z,1.40
2023-03-13T19:16:59.163Z,1.77
2023-03-13T19:19:26.820Z,1.65
2023-03-13T19:21:57.226Z,1.48
2023-03-13T19:24:26.888Z,1.65
2023-03-13T19:26:58.559Z,1.83
2023-03-13T19:29:27.189Z,1.67
2023-03-13T19:31:59.437Z,1.77
2023-03-13T19:34:30.120Z,2.00
2023-03-13T19:36:57.497Z,2.00
2023-03-13T19:39:25.866Z,1.90
2023-03-13T19:41:53.666Z,1.63
2023-03-13T19:44:21.471Z,1.80
2023-03-13T19:46:50.386Z,2.05
2023-03-13T19:49:22.990Z,1.85
2023-03-13T19:51:53.804Z,2.38
2023-03-13T19:54:25.080Z,2.00
2023-03-13T19:56:56.045Z,2.08
2023-03-13T19:59:37.039Z,1.90
2023-03-13T20:02:06.548Z,2.00
2023-03-13T20:04:34.439Z,2.53
2023-03-13T20:07:04.140Z,2.60
2023-03-13T20:09:31.461Z,1.90
2023-03-13T20:11:58.817Z,2.20
2023-03-13T20:14:29.458Z,1.90
2023-03-13T20:16:57.812Z,2.10
2023-03-13T20:19:31.982Z,1.90
2023-03-13T20:24:58.489Z,2.45
2023-03-13T20:27:25.844Z,1.77
2023-03-13T20:30:02.212Z,2.22
2023-03-13T20:32:30.264Z,1.70
2023-03-13T20:34:57.498Z,1.60
2023-03-13T20:37:27.500Z,1.90
2023-03-13T20:39:57.959Z,2.38
2023-03-13T20:42:25.159Z,1.60
2023-03-13T20:44:56.457Z,2.30
2023-03-13T20:47:30.920Z,2.35
2023-03-13T20:49:59.086Z,1.90
2023-03-13T20:52:27.072Z,2.25
2023-03-13T20:54:57.287Z,2.05
2023-03-13T20:57:33.201Z,2.25
2023-03-13T21:00:00.501Z,1.80
2023-03-13T21:02:31.849Z,2.00
2023-03-13T21:04:59.338Z,1.92
2023-03-13T21:07:28.848Z,1.63
2023-03-13T21:10:00.546Z,1.73
2023-03-13T21:12:29.696Z,1.65
2023-03-13T21:14:58.131Z,1.60
2023-03-13T21:17:27.723Z,1.70
2023-03-13T21:20:02.297Z,1.60
2023-03-13T21:22:33.284Z,1.58
2023-03-13T21:25:13.446Z,1.50
2023-03-13T21:27:43.921Z,2.10
2023-03-13T21:30:12.307Z,1.55
2023-03-13T21:32:52.914Z,1.83
2023-03-13T21:35:21.662Z,2.00
2023-03-13T21:37:49.810Z,2.03
2023-03-13T21:40:24.142Z,2.00
2023-03-13T21:42:51.390Z,2.20
2023-03-13T21:45:20.015Z,1.90
2023-03-13T21:47:47.515Z,2.10
2023-03-13T21:50:15.688Z,1.90
2023-03-13T21:52:43.840Z,2.20
2023-03-13T21:55:12.782Z,1.90
2023-03-13T21:57:41.883Z,1.80
2023-03-13T22:00:15.322Z,2.17
2023-03-13T22:02:42.956Z,1.77
2023-03-13T22:05:11.913Z,1.40
2023-03-13T22:07:40.297Z,1.60
2023-03-13T22:10:07.750Z,1.33
2023-03-13T22:12:37.425Z,1.60
2023-03-13T22:15:06.151Z,1.60
2023-03-13T22:17:33.405Z,1.95
2023-03-13T22:20:00.594Z,1.60
2023-03-13T22:22:27.802Z,1.85
2023-03-13T22:24:56.087Z,1.88
2023-03-13T22:27:25.545Z,1.70
2023-03-13T22:29:53.018Z,1.70
2023-03-13T22:32:20.338Z,1.50
2023-03-13T22:34:49.022Z,1.67
2023-03-13T22:37:16.270Z,1.48
2023-03-13T22:39:43.476Z,1.42
2023-03-13T22:42:10.652Z,1.67
2023-03-13T22:44:37.936Z,1.20
2023-03-13T22:47:05.149Z,1.20
2023-03-13T22:49:32.422Z,1.48
2023-03-13T22:51:59.605Z,1.35
2023-03-13T22:54:26.821Z,1.50
2023-03-13T22:56:54.027Z,1.00
2023-03-13T22:59:21.641Z,1.17
2023-03-13T23:01:49.207Z,1.05
2023-03-13T23:04:16.813Z,1.30
2023-03-13T23:06:44.116Z,1.10
2023-03-13T23:09:11.523Z,1.10
2023-03-13T23:11:38.763Z,1.00
2023-03-13T23:14:05.966Z,1.00
2023-03-13T23:16:33.382Z,1.08
2023-03-13T23:19:02.045Z,1.02
2023-03-13T23:21:29.274Z,1.00
2023-03-13T23:23:56.523Z,0.82
2023-03-13T23:26:23.869Z,0.63
2023-03-13T23:28:51.030Z,0.90
2023-03-13T23:31:19.865Z,1.42
2023-03-13T23:33:47.474Z,1.13
2023-03-13T23:36:16.606Z,0.55
2023-03-13T23:38:44.024Z,0.47
2023-03-13T23:41:12.614Z,0.60
2023-03-13T23:43:39.808Z,0.50
2023-03-13T23:46:07.602Z,0.57
2023-03-13T23:48:34.774Z,0.52
2023-03-13T23:51:05.854Z,0.60
2023-03-13T23:53:36.552Z,0.73
2023-03-13T23:56:03.836Z,0.63
2023-03-13T23:58:30.991Z,0.80
